sensor_id;sensor_type;location;lat;lon;timestamp;P1;durP1;ratioP1;P2;durP2;ratioP2
38715;SDS011;24833;49.324;8.694;2023-03-11T00:00:42;0.43;;;0.43;;
38715;SDS011;24833;49.324;8.694;2023-03-11T00:03:13;0.95;;;0.50;;
38715;SDS011;24833;49.324;8.694;2023-03-11T00:05:42;1.05;;;0.73;;
38715;SDS011;24833;49.324;8.694;2023-03-11T00:08:12;0.50;;;0.50;;
38715;SDS011;24833;49.324;8.694;2023-03-11T00:10:44;1.33;;;0.68;;
38715;SDS011;24833;49.324;8.694;2023-03-11T00:13:13;1.98;;;0.70;;
38715;SDS011;24833;49.324;8.694;2023-03-11T00:15:42;0.35;;;0.35;;
38715;SDS011;24833;49.324;8.694;2023-03-11T00:18:14;0.70;;;0.68;;
38715;SDS011;24833;49.324;8.694;2023-03-11T00:20:42;1.17;;;0.47;;
38715;SDS011;24833;49.324;8.694;2023-03-11T00:23:12;0.77;;;0.40;;
38715;SDS011;24833;49.324;8.694;2023-03-11T00:25:41;0.93;;;0.50;;
38715;SDS011;24833;49.324;8.694;2023-03-11T00:28:11;1.38;;;0.68;;
38715;SDS011;24833;49.324;8.694;2023-03-11T00:30:39;2.50;;;0.40;;
38715;SDS011;24833;49.324;8.694;2023-03-11T00:33:09;0.85;;;0.30;;
38715;SDS011;24833;49.324;8.694;2023-03-11T00:38:07;1.52;;;0.40;;
38715;SDS011;24833;49.324;8.694;2023-03-11T00:40:39;0.40;;;0.40;;
38715;SDS011;24833;49.324;8.694;2023-03-11T00:43:06;0.38;;;0.30;;
38715;SDS011;24833;49.324;8.694;2023-03-11T00:45:34;1.08;;;0.28;;
38715;SDS011;24833;49.324;8.694;2023-03-11T00:48:02;1.25;;;0.40;;
38715;SDS011;24833;49.324;8.694;2023-03-11T00:50:31;0.28;;;0.28;;
38715;SDS011;24833;49.324;8.694;2023-03-11T00:53:00;1.10;;;0.32;;
38715;SDS011;24833;49.324;8.694;2023-03-11T00:55:30;0.82;;;0.40;;
38715;SDS011;24833;49.324;8.694;2023-03-11T01:00:50;0.57;;;0.38;;
38715;SDS011;24833;49.324;8.694;2023-03-11T01:03:17;0.88;;;0.38;;
38715;SDS011;24833;49.324;8.694;2023-03-11T01:05:44;1.48;;;0.85;;
38715;SDS011;24833;49.324;8.694;2023-03-11T01:08:11;0.52;;;0.20;;
38715;SDS011;24833;49.324;8.694;2023-03-11T01:10:38;0.63;;;0.30;;
38715;SDS011;24833;49.324;8.694;2023-03-11T01:13:05;0.38;;;0.30;;
38715;SDS011;24833;49.324;8.694;2023-03-11T01:15:35;1.65;;;0.40;;
38715;SDS011;24833;49.324;8.694;2023-03-11T01:18:03;0.30;;;0.30;;
38715;SDS011;24833;49.324;8.694;2023-03-11T01:20:32;0.68;;;0.40;;
38715;SDS011;24833;49.324;8.694;2023-03-11T01:23:01;1.17;;;0.43;;
38715;SDS011;24833;49.324;8.694;2023-03-11T01:25:28;0.82;;;0.40;;
38715;SDS011;24833;49.324;8.694;2023-03-11T01:27:56;1.45;;;0.65;;
38715;SDS011;24833;49.324;8.694;2023-03-11T01:30:25;1.27;;;0.40;;
38715;SDS011;24833;49.324;8.694;2023-03-11T01:32:55;0.57;;;0.40;;
38715;SDS011;24833;49.324;8.694;2023-03-11T01:35:23;0.40;;;0.30;;
38715;SDS011;24833;49.324;8.694;2023-03-11T01:37:52;1.35;;;0.40;;
38715;SDS011;24833;49.324;8.694;2023-03-11T01:42:55;0.40;;;0.30;;
38715;SDS011;24833;49.324;8.694;2023-03-11T01:48:09;1.73;;;0.30;;
38715;SDS011;24833;49.324;8.694;2023-03-11T01:50:39;0.77;;;0.32;;
38715;SDS011;24833;49.324;8.694;2023-03-11T01:53:12;0.55;;;0.30;;
38715;SDS011;24833;49.324;8.694;2023-03-11T01:55:41;1.75;;;0.38;;
38715;SDS011;24833;49.324;8.694;2023-03-11T01:58:11;1.08;;;0.40;;
38715;SDS011;24833;49.324;8.694;2023-03-11T02:00:49;2.47;;;0.47;;
38715;SDS011;24833;49.324;8.694;2023-03-11T02:03:19;2.28;;;0.90;;
38715;SDS011;24833;49.324;8.694;2023-03-11T02:05:52;1.33;;;0.85;;
38715;SDS011;24833;49.324;8.694;2023-03-11T02:08:22;0.82;;;0.50;;
38715;SDS011;24833;49.324;8.694;2023-03-11T02:10:50;0.70;;;0.50;;
38715;SDS011;24833;49.324;8.694;2023-03-11T02:13:18;0.50;;;0.50;;
38715;SDS011;24833;49.324;8.694;2023-03-11T02:15:46;2.13;;;0.40;;
38715;SDS011;24833;49.324;8.694;2023-03-11T02:18:13;0.57;;;0.38;;
38715;SDS011;24833;49.324;8.694;2023-03-11T02:21:05;0.50;;;0.50;;
38715;SDS011;24833;49.324;8.694;2023-03-11T02:29:27;0.60;;;0.40;;
38715;SDS011;24833;49.324;8.694;2023-03-11T02:31:56;0.40;;;0.40;;
38715;SDS011;24833;49.324;8.694;2023-03-11T02:34:26;0.55;;;0.55;;
38715;SDS011;24833;49.324;8.694;2023-03-11T02:36:56;0.40;;;0.40;;
38715;SDS011;24833;49.324;8.694;2023-03-11T02:39:31;0.70;;;0.60;;
38715;SDS011;24833;49.324;8.694;2023-03-11T02:41:59;0.50;;;0.50;;
38715;SDS011;24833;49.324;8.694;2023-03-11T02:44:32;0.73;;;0.50;;
38715;SDS011;24833;49.324;8.694;2023-03-11T02:47:00;2.50;;;0.32;;
38715;SDS011;24833;49.324;8.694;2023-03-11T02:49:28;0.65;;;0.35;;
38715;SDS011;24833;49.324;8.694;2023-03-11T02:51:56;0.32;;;0.32;;
38715;SDS011;24833;49.324;8.694;2023-03-11T02:54:23;1.75;;;0.70;;
38715;SDS011;24833;49.324;8.694;2023-03-11T02:56:50;1.30;;;0.60;;
38715;SDS011;24833;49.324;8.694;2023-03-11T02:59:17;1.08;;;0.60;;
38715;SDS011;24833;49.324;8.694;2023-03-11T03:01:44;0.63;;;0.50;;
38715;SDS011;24833;49.324;8.694;2023-03-11T03:04:11;2.17;;;0.60;;
38715;SDS011;24833;49.324;8.694;2023-03-11T03:06:38;0.98;;;0.68;;
38715;SDS011;24833;49.324;8.694;2023-03-11T03:09:06;0.98;;;0.73;;
38715;SDS011;24833;49.324;8.694;2023-03-11T03:11:33;1.50;;;0.55;;
38715;SDS011;24833;49.324;8.694;2023-03-11T03:14:00;0.60;;;0.60;;
38715;SDS011;24833;49.324;8.694;2023-03-11T03:16:27;0.55;;;0.43;;
38715;SDS011;24833;49.324;8.694;2023-03-11T03:18:54;0.73;;;0.50;;
38715;SDS011;24833;49.324;8.694;2023-03-11T03:21:21;0.95;;;0.50;;
38715;SDS011;24833;49.324;8.694;2023-03-11T03:23:48;0.55;;;0.50;;
38715;SDS011;24833;49.324;8.694;2023-03-11T03:26:15;0.40;;;0.40;;
38715;SDS011;24833;49.324;8.694;2023-03-11T03:28:45;0.80;;;0.50;;
38715;SDS011;24833;49.324;8.694;2023-03-11T03:31:13;1.45;;;0.82;;
38715;SDS011;24833;49.324;8.694;2023-03-11T03:36:12;2.55;;;0.77;;
38715;SDS011;24833;49.324;8.694;2023-03-11T03:38:44;1.08;;;0.70;;
38715;SDS011;24833;49.324;8.694;2023-03-11T03:41:14;0.93;;;0.77;;
38715;SDS011;24833;49.324;8.694;2023-03-11T03:43:42;1.65;;;0.90;;
38715;SDS011;24833;49.324;8.694;2023-03-11T03:46:10;0.88;;;0.60;;
38715;SDS011;24833;49.324;8.694;2023-03-11T03:48:41;5.30;;;0.52;;
38715;SDS011;24833;49.324;8.694;2023-03-11T03:51:10;2.20;;;0.40;;
38715;SDS011;24833;49.324;8.694;2023-03-11T03:53:46;0.98;;;0.50;;
38715;SDS011;24833;49.324;8.694;2023-03-11T03:56:15;1.33;;;0.50;;
38715;SDS011;24833;49.324;8.694;2023-03-11T03:58:43;1.10;;;0.60;;
38715;SDS011;24833;49.324;8.694;2023-03-11T04:01:11;0.45;;;0.40;;
38715;SDS011;24833;49.324;8.694;2023-03-11T04:03:39;0.93;;;0.60;;
38715;SDS011;24833;49.324;8.694;2023-03-11T04:06:28;0.60;;;0.40;;
38715;SDS011;24833;49.324;8.694;2023-03-11T04:09:01;1.15;;;0.73;;
38715;SDS011;24833;49.324;8.694;2023-03-11T04:11:32;0.60;;;0.50;;
38715;SDS011;24833;49.324;8.694;2023-03-11T04:14:00;1.20;;;0.40;;
38715;SDS011;24833;49.324;8.694;2023-03-11T04:16:28;1.52;;;0.60;;
38715;SDS011;24833;49.324;8.694;2023-03-11T04:19:01;1.05;;;0.60;;
38715;SDS011;24833;49.324;8.694;2023-03-11T04:21:31;1.15;;;0.50;;
38715;SDS011;24833;49.324;8.694;2023-03-11T04:23:59;0.40;;;0.40;;
38715;SDS011;24833;49.324;8.694;2023-03-11T04:26:31;1.27;;;0.50;;
38715;SDS011;24833;49.324;8.694;2023-03-11T04:28:58;1.35;;;0.30;;
38715;SDS011;24833;49.324;8.694;2023-03-11T04:31:29;1.03;;;0.50;;
38715;SDS011;24833;49.324;8.694;2023-03-11T04:33:58;0.52;;;0.45;;
38715;SDS011;24833;49.324;8.694;2023-03-11T04:36:25;0.75;;;0.50;;
38715;SDS011;24833;49.324;8.694;2023-03-11T04:38:54;0.63;;;0.35;;
38715;SDS011;24833;49.324;8.694;2023-03-11T04:41:25;0.52;;;0.35;;
38715;SDS011;24833;49.324;8.694;2023-03-11T04:43:52;0.28;;;0.28;;
38715;SDS011;24833;49.324;8.694;2023-03-11T04:46:19;0.70;;;0.43;;
38715;SDS011;24833;49.324;8.694;2023-03-11T04:48:47;2.13;;;0.50;;
38715;SDS011;24833;49.324;8.694;2023-03-11T04:51:14;0.32;;;0.32;;
38715;SDS011;24833;49.324;8.694;2023-03-11T04:53:41;1.02;;;0.50;;
38715;SDS011;24833;49.324;8.694;2023-03-11T04:56:09;1.20;;;0.60;;
38715;SDS011;24833;49.324;8.694;2023-03-11T04:58:37;4.65;;;0.60;;
38715;SDS011;24833;49.324;8.694;2023-03-11T05:01:04;0.95;;;0.63;;
38715;SDS011;24833;49.324;8.694;2023-03-11T05:03:31;1.58;;;0.60;;
38715;SDS011;24833;49.324;8.694;2023-03-11T05:05:58;0.90;;;0.50;;
38715;SDS011;24833;49.324;8.694;2023-03-11T05:08:25;0.40;;;0.40;;
38715;SDS011;24833;49.324;8.694;2023-03-11T05:10:53;0.52;;;0.43;;
38715;SDS011;24833;49.324;8.694;2023-03-11T05:13:21;2.50;;;0.63;;
38715;SDS011;24833;49.324;8.694;2023-03-11T05:15:50;3.05;;;0.63;;
38715;SDS011;24833;49.324;8.694;2023-03-11T05:18:17;1.33;;;0.55;;
38715;SDS011;24833;49.324;8.694;2023-03-11T05:20:44;0.82;;;0.52;;
38715;SDS011;24833;49.324;8.694;2023-03-11T05:23:20;1.10;;;0.65;;
38715;SDS011;24833;49.324;8.694;2023-03-11T05:25:47;0.40;;;0.40;;
38715;SDS011;24833;49.324;8.694;2023-03-11T05:28:14;0.80;;;0.30;;
38715;SDS011;24833;49.324;8.694;2023-03-11T05:30:47;1.75;;;0.60;;
38715;SDS011;24833;49.324;8.694;2023-03-11T05:33:16;0.82;;;0.35;;
38715;SDS011;24833;49.324;8.694;2023-03-11T05:35:44;0.85;;;0.47;;
38715;SDS011;24833;49.324;8.694;2023-03-11T05:38:11;2.05;;;0.95;;
38715;SDS011;24833;49.324;8.694;2023-03-11T05:40:39;0.73;;;0.50;;
38715;SDS011;24833;49.324;8.694;2023-03-11T05:43:08;0.73;;;0.60;;
38715;SDS011;24833;49.324;8.694;2023-03-11T05:45:39;0.50;;;0.43;;
38715;SDS011;24833;49.324;8.694;2023-03-11T05:48:06;0.73;;;0.40;;
38715;SDS011;24833;49.324;8.694;2023-03-11T05:50:35;1.13;;;0.60;;
38715;SDS011;24833;49.324;8.694;2023-03-11T05:53:03;2.65;;;0.77;;
38715;SDS011;24833;49.324;8.694;2023-03-11T05:55:30;0.55;;;0.40;;
38715;SDS011;24833;49.324;8.694;2023-03-11T05:57:58;0.75;;;0.65;;
38715;SDS011;24833;49.324;8.694;2023-03-11T06:00:25;2.58;;;0.82;;
38715;SDS011;24833;49.324;8.694;2023-03-11T06:05:23;1.88;;;0.65;;
38715;SDS011;24833;49.324;8.694;2023-03-11T06:07:52;0.43;;;0.43;;
38715;SDS011;24833;49.324;8.694;2023-03-11T06:10:21;1.05;;;0.43;;
38715;SDS011;24833;49.324;8.694;2023-03-11T06:12:48;1.65;;;0.57;;
38715;SDS011;24833;49.324;8.694;2023-03-11T06:15:21;2.83;;;0.60;;
38715;SDS011;24833;49.324;8.694;2023-03-11T06:17:48;1.10;;;0.50;;
38715;SDS011;24833;49.324;8.694;2023-03-11T06:20:16;0.80;;;0.60;;
38715;SDS011;24833;49.324;8.694;2023-03-11T06:22:43;1.52;;;0.55;;
38715;SDS011;24833;49.324;8.694;2023-03-11T06:25:13;1.52;;;0.50;;
38715;SDS011;24833;49.324;8.694;2023-03-11T06:27:41;2.00;;;0.57;;
38715;SDS011;24833;49.324;8.694;2023-03-11T06:30:10;1.00;;;0.40;;
38715;SDS011;24833;49.324;8.694;2023-03-11T06:32:47;0.88;;;0.60;;
38715;SDS011;24833;49.324;8.694;2023-03-11T06:35:14;1.38;;;0.90;;
38715;SDS011;24833;49.324;8.694;2023-03-11T06:37:41;1.58;;;1.00;;
38715;SDS011;24833;49.324;8.694;2023-03-11T06:40:09;1.88;;;1.00;;
38715;SDS011;24833;49.324;8.694;2023-03-11T06:42:37;0.77;;;0.65;;
38715;SDS011;24833;49.324;8.694;2023-03-11T06:45:07;1.85;;;0.80;;
38715;SDS011;24833;49.324;8.694;2023-03-11T06:47:36;2.53;;;0.93;;
38715;SDS011;24833;49.324;8.694;2023-03-11T06:50:04;4.90;;;1.00;;
38715;SDS011;24833;49.324;8.694;2023-03-11T06:52:34;0.90;;;0.60;;
38715;SDS011;24833;49.324;8.694;2023-03-11T06:55:01;1.25;;;0.75;;
38715;SDS011;24833;49.324;8.694;2023-03-11T06:57:30;1.65;;;0.70;;
38715;SDS011;24833;49.324;8.694;2023-03-11T07:00:02;1.50;;;0.57;;
38715;SDS011;24833;49.324;8.694;2023-03-11T07:02:34;1.25;;;0.70;;
38715;SDS011;24833;49.324;8.694;2023-03-11T07:05:01;0.65;;;0.63;;
38715;SDS011;24833;49.324;8.694;2023-03-11T07:07:29;1.55;;;0.80;;
38715;SDS011;24833;49.324;8.694;2023-03-11T07:09:56;1.10;;;1.00;;
38715;SDS011;24833;49.324;8.694;2023-03-11T07:12:23;3.08;;;1.40;;
38715;SDS011;24833;49.324;8.694;2023-03-11T07:14:57;3.58;;;0.80;;
38715;SDS011;24833;49.324;8.694;2023-03-11T07:17:26;0.80;;;0.77;;
38715;SDS011;24833;49.324;8.694;2023-03-11T07:19:53;3.50;;;1.05;;
38715;SDS011;24833;49.324;8.694;2023-03-11T07:22:20;2.97;;;1.65;;
38715;SDS011;24833;49.324;8.694;2023-03-11T07:24:47;2.95;;;0.75;;
38715;SDS011;24833;49.324;8.694;2023-03-11T07:27:14;3.00;;;0.93;;
38715;SDS011;24833;49.324;8.694;2023-03-11T07:29:42;1.40;;;0.90;;
38715;SDS011;24833;49.324;8.694;2023-03-11T07:32:09;2.50;;;1.23;;
38715;SDS011;24833;49.324;8.694;2023-03-11T07:34:36;1.60;;;0.90;;
38715;SDS011;24833;49.324;8.694;2023-03-11T07:37:03;1.73;;;0.98;;
38715;SDS011;24833;49.324;8.694;2023-03-11T07:39:31;1.75;;;0.85;;
38715;SDS011;24833;49.324;8.694;2023-03-11T07:41:57;1.55;;;1.00;;
38715;SDS011;24833;49.324;8.694;2023-03-11T07:44:32;1.52;;;1.00;;
38715;SDS011;24833;49.324;8.694;2023-03-11T07:47:03;1.70;;;1.00;;
38715;SDS011;24833;49.324;8.694;2023-03-11T07:49:31;1.50;;;0.65;;
38715;SDS011;24833;49.324;8.694;2023-03-11T07:51:58;1.00;;;0.90;;
38715;SDS011;24833;49.324;8.694;2023-03-11T07:54:26;2.75;;;0.65;;
38715;SDS011;24833;49.324;8.694;2023-03-11T07:56:53;1.45;;;0.60;;
38715;SDS011;24833;49.324;8.694;2023-03-11T07:59:20;1.25;;;0.93;;
38715;SDS011;24833;49.324;8.694;2023-03-11T08:01:47;2.30;;;1.00;;
38715;SDS011;24833;49.324;8.694;2023-03-11T08:04:14;1.63;;;0.80;;
38715;SDS011;24833;49.324;8.694;2023-03-11T08:06:43;5.65;;;1.45;;
38715;SDS011;24833;49.324;8.694;2023-03-11T08:09:12;1.02;;;0.70;;
38715;SDS011;24833;49.324;8.694;2023-03-11T08:11:39;1.27;;;0.90;;
38715;SDS011;24833;49.324;8.694;2023-03-11T08:14:07;3.50;;;0.85;;
38715;SDS011;24833;49.324;8.694;2023-03-11T08:16:34;3.42;;;1.10;;
38715;SDS011;24833;49.324;8.694;2023-03-11T08:19:01;1.55;;;0.70;;
38715;SDS011;24833;49.324;8.694;2023-03-11T08:21:28;2.53;;;0.70;;
38715;SDS011;24833;49.324;8.694;2023-03-11T08:23:58;2.95;;;1.20;;
38715;SDS011;24833;49.324;8.694;2023-03-11T08:26:27;4.75;;;1.08;;
38715;SDS011;24833;49.324;8.694;2023-03-11T08:28:56;1.77;;;0.75;;
38715;SDS011;24833;49.324;8.694;2023-03-11T08:31:25;3.95;;;0.82;;
38715;SDS011;24833;49.324;8.694;2023-03-11T08:34:06;3.58;;;0.95;;
38715;SDS011;24833;49.324;8.694;2023-03-11T08:36:35;1.55;;;0.95;;
38715;SDS011;24833;49.324;8.694;2023-03-11T08:39:02;2.25;;;0.88;;
38715;SDS011;24833;49.324;8.694;2023-03-11T08:41:29;2.70;;;0.77;;
38715;SDS011;24833;49.324;8.694;2023-03-11T08:43:56;1.55;;;0.70;;
38715;SDS011;24833;49.324;8.694;2023-03-11T08:46:25;1.50;;;0.80;;
38715;SDS011;24833;49.324;8.694;2023-03-11T08:48:57;1.88;;;0.85;;
38715;SDS011;24833;49.324;8.694;2023-03-11T08:51:27;2.03;;;0.88;;
38715;SDS011;24833;49.324;8.694;2023-03-11T08:53:55;4.43;;;0.98;;
38715;SDS011;24833;49.324;8.694;2023-03-11T08:56:23;3.35;;;1.10;;
38715;SDS011;24833;49.324;8.694;2023-03-11T08:58:50;2.03;;;1.00;;
38715;SDS011;24833;49.324;8.694;2023-03-11T09:01:18;3.08;;;0.80;;
38715;SDS011;24833;49.324;8.694;2023-03-11T09:03:45;2.28;;;0.70;;
38715;SDS011;24833;49.324;8.694;2023-03-11T09:06:13;3.25;;;1.10;;
38715;SDS011;24833;49.324;8.694;2023-03-11T09:08:42;3.20;;;1.15;;
38715;SDS011;24833;49.324;8.694;2023-03-11T09:11:10;2.17;;;1.02;;
38715;SDS011;24833;49.324;8.694;2023-03-11T09:13:38;2.95;;;0.90;;
38715;SDS011;24833;49.324;8.694;2023-03-11T09:16:08;2.50;;;0.88;;
38715;SDS011;24833;49.324;8.694;2023-03-11T09:18:40;2.78;;;1.23;;
38715;SDS011;24833;49.324;8.694;2023-03-11T09:21:08;6.75;;;1.10;;
38715;SDS011;24833;49.324;8.694;2023-03-11T09:23:35;3.90;;;1.05;;
38715;SDS011;24833;49.324;8.694;2023-03-11T09:26:03;2.33;;;1.15;;
38715;SDS011;24833;49.324;8.694;2023-03-11T09:28:30;3.42;;;1.10;;
38715;SDS011;24833;49.324;8.694;2023-03-11T09:30:57;1.50;;;0.88;;
38715;SDS011;24833;49.324;8.694;2023-03-11T09:33:24;5.75;;;1.40;;
38715;SDS011;24833;49.324;8.694;2023-03-11T09:35:52;5.13;;;1.20;;
38715;SDS011;24833;49.324;8.694;2023-03-11T09:38:19;2.55;;;1.00;;
38715;SDS011;24833;49.324;8.694;2023-03-11T09:40:59;2.25;;;0.70;;
38715;SDS011;24833;49.324;8.694;2023-03-11T09:55:44;2.22;;;0.95;;
38715;SDS011;24833;49.324;8.694;2023-03-11T10:01:24;1.23;;;0.70;;
38715;SDS011;24833;49.324;8.694;2023-03-11T10:06:54;1.85;;;1.13;;
38715;SDS011;24833;49.324;8.694;2023-03-11T12:24:55;1.55;;;0.95;;
38715;SDS011;24833;49.324;8.694;2023-03-11T12:28:50;1.63;;;1.10;;
38715;SDS011;24833;49.324;8.694;2023-03-11T12:31:02;2.10;;;0.90;;
38715;SDS011;24833;49.324;8.694;2023-03-11T12:33:35;3.45;;;0.90;;
38715;SDS011;24833;49.324;8.694;2023-03-11T12:36:20;1.85;;;0.70;;
38715;SDS011;24833;49.324;8.694;2023-03-11T12:39:16;1.10;;;0.68;;
38715;SDS011;24833;49.324;8.694;2023-03-11T12:42:13;1.83;;;0.82;;
38715;SDS011;24833;49.324;8.694;2023-03-11T12:44:48;1.00;;;0.77;;
38715;SDS011;24833;49.324;8.694;2023-03-11T12:47:17;1.77;;;0.90;;
38715;SDS011;24833;49.324;8.694;2023-03-11T12:49:51;1.63;;;0.80;;
38715;SDS011;24833;49.324;8.694;2023-03-11T12:52:21;1.40;;;0.80;;
38715;SDS011;24833;49.324;8.694;2023-03-11T12:57:32;2.35;;;0.80;;
38715;SDS011;24833;49.324;8.694;2023-03-11T13:09:15;2.78;;;0.70;;
38715;SDS011;24833;49.324;8.694;2023-03-11T13:11:43;1.17;;;0.70;;
38715;SDS011;24833;49.324;8.694;2023-03-11T13:16:40;1.30;;;0.80;;
38715;SDS011;24833;49.324;8.694;2023-03-11T13:22:02;1.63;;;0.50;;
38715;SDS011;24833;49.324;8.694;2023-03-11T13:41:12;1.58;;;0.70;;
38715;SDS011;24833;49.324;8.694;2023-03-11T13:43:48;1.95;;;0.73;;
38715;SDS011;24833;49.324;8.694;2023-03-11T13:46:25;0.80;;;0.60;;
38715;SDS011;24833;49.324;8.694;2023-03-11T13:49:05;1.35;;;0.80;;
38715;SDS011;24833;49.324;8.694;2023-03-11T13:52:13;1.15;;;0.70;;
38715;SDS011;24833;49.324;8.694;2023-03-11T13:57:32;3.78;;;0.80;;
38715;SDS011;24833;49.324;8.694;2023-03-11T14:02:48;2.67;;;0.88;;
38715;SDS011;24833;49.324;8.694;2023-03-11T14:05:24;2.28;;;0.73;;
38715;SDS011;24833;49.324;8.694;2023-03-11T14:08:10;1.23;;;0.68;;
38715;SDS011;24833;49.324;8.694;2023-03-11T14:10:58;2.03;;;0.60;;
38715;SDS011;24833;49.324;8.694;2023-03-11T14:13:28;1.30;;;0.70;;
38715;SDS011;24833;49.324;8.694;2023-03-11T14:15:59;0.93;;;0.60;;
38715;SDS011;24833;49.324;8.694;2023-03-11T14:19:05;1.70;;;0.90;;
38715;SDS011;24833;49.324;8.694;2023-03-11T14:21:45;0.73;;;0.57;;
38715;SDS011;24833;49.324;8.694;2023-03-11T14:24:19;1.08;;;0.73;;
38715;SDS011;24833;49.324;8.694;2023-03-11T14:26:54;1.95;;;0.68;;
38715;SDS011;24833;49.324;8.694;2023-03-11T14:29:39;1.33;;;0.90;;
38715;SDS011;24833;49.324;8.694;2023-03-11T14:32:24;1.98;;;0.68;;
38715;SDS011;24833;49.324;8.694;2023-03-11T14:34:56;1.48;;;0.75;;
38715;SDS011;24833;49.324;8.694;2023-03-11T14:39:59;1.38;;;0.70;;
38715;SDS011;24833;49.324;8.694;2023-03-11T14:42:27;1.55;;;0.90;;
38715;SDS011;24833;49.324;8.694;2023-03-11T14:45:03;2.40;;;1.17;;
38715;SDS011;24833;49.324;8.694;2023-03-11T14:47:41;1.42;;;0.95;;
38715;SDS011;24833;49.324;8.694;2023-03-11T14:50:29;2.20;;;1.05;;
38715;SDS011;24833;49.324;8.694;2023-03-11T14:53:14;2.53;;;0.90;;
38715;SDS011;24833;49.324;8.694;2023-03-11T14:55:58;1.10;;;0.85;;
38715;SDS011;24833;49.324;8.694;2023-03-11T14:58:41;2.17;;;0.77;;
38715;SDS011;24833;49.324;8.694;2023-03-11T15:01:22;1.98;;;0.80;;
38715;SDS011;24833;49.324;8.694;2023-03-11T15:06:40;1.08;;;0.70;;
38715;SDS011;24833;49.324;8.694;2023-03-11T15:09:16;3.15;;;0.60;;
38715;SDS011;24833;49.324;8.694;2023-03-11T15:11:53;2.38;;;0.85;;
38715;SDS011;24833;49.324;8.694;2023-03-11T15:17:09;1.40;;;0.80;;
38715;SDS011;24833;49.324;8.694;2023-03-11T15:20:20;2.20;;;0.90;;
38715;SDS011;24833;49.324;8.694;2023-03-11T15:22:53;1.95;;;0.90;;
38715;SDS011;24833;49.324;8.694;2023-03-11T15:25:26;1.77;;;0.73;;
38715;SDS011;24833;49.324;8.694;2023-03-11T15:27:57;1.60;;;0.60;;
38715;SDS011;24833;49.324;8.694;2023-03-11T15:30:28;2.25;;;0.88;;
38715;SDS011;24833;49.324;8.694;2023-03-11T15:32:56;1.95;;;0.93;;
38715;SDS011;24833;49.324;8.694;2023-03-11T15:35:27;0.88;;;0.80;;
38715;SDS011;24833;49.324;8.694;2023-03-11T15:40:57;1.88;;;0.80;;
38715;SDS011;24833;49.324;8.694;2023-03-11T15:43:27;1.00;;;0.90;;
38715;SDS011;24833;49.324;8.694;2023-03-11T15:48:27;0.98;;;0.88;;
38715;SDS011;24833;49.324;8.694;2023-03-11T15:50:57;2.10;;;0.88;;
38715;SDS011;24833;49.324;8.694;2023-03-11T15:53:25;1.90;;;0.93;;
38715;SDS011;24833;49.324;8.694;2023-03-11T15:55:56;3.42;;;1.13;;
38715;SDS011;24833;49.324;8.694;2023-03-11T15:58:34;1.98;;;1.10;;
38715;SDS011;24833;49.324;8.694;2023-03-11T16:01:03;2.10;;;0.90;;
38715;SDS011;24833;49.324;8.694;2023-03-11T16:03:30;2.08;;;0.95;;
38715;SDS011;24833;49.324;8.694;2023-03-11T16:05:57;3.58;;;0.80;;
38715;SDS011;24833;49.324;8.694;2023-03-11T16:08:24;2.13;;;1.00;;
38715;SDS011;24833;49.324;8.694;2023-03-11T16:10:51;3.45;;;0.95;;
38715;SDS011;24833;49.324;8.694;2023-03-11T16:13:18;1.48;;;0.82;;
38715;SDS011;24833;49.324;8.694;2023-03-11T16:15:45;2.53;;;1.10;;
38715;SDS011;24833;49.324;8.694;2023-03-11T16:18:13;1.88;;;0.93;;
38715;SDS011;24833;49.324;8.694;2023-03-11T16:23:21;2.53;;;1.15;;
38715;SDS011;24833;49.324;8.694;2023-03-11T16:25:58;3.05;;;1.00;;
38715;SDS011;24833;49.324;8.694;2023-03-11T16:28:28;1.02;;;0.80;;
38715;SDS011;24833;49.324;8.694;2023-03-11T16:30:55;3.03;;;0.88;;
38715;SDS011;24833;49.324;8.694;2023-03-11T16:33:22;2.92;;;0.82;;
38715;SDS011;24833;49.324;8.694;2023-03-11T16:35:49;1.38;;;1.17;;
38715;SDS011;24833;49.324;8.694;2023-03-11T16:38:16;2.17;;;1.33;;
38715;SDS011;24833;49.324;8.694;2023-03-11T16:40:45;2.28;;;1.23;;
38715;SDS011;24833;49.324;8.694;2023-03-11T16:43:28;2.50;;;1.30;;
38715;SDS011;24833;49.324;8.694;2023-03-11T16:45:56;2.42;;;1.10;;
38715;SDS011;24833;49.324;8.694;2023-03-11T16:48:23;2.05;;;0.95;;
38715;SDS011;24833;49.324;8.694;2023-03-11T16:50:51;1.65;;;0.90;;
38715;SDS011;24833;49.324;8.694;2023-03-11T16:53:18;3.55;;;0.85;;
38715;SDS011;24833;49.324;8.694;2023-03-11T16:55:45;1.02;;;0.60;;
38715;SDS011;24833;49.324;8.694;2023-03-11T16:58:13;1.35;;;1.02;;
38715;SDS011;24833;49.324;8.694;2023-03-11T17:00:40;0.70;;;0.65;;
38715;SDS011;24833;49.324;8.694;2023-03-11T17:03:12;2.17;;;1.13;;
38715;SDS011;24833;49.324;8.694;2023-03-11T17:05:41;0.80;;;0.80;;
38715;SDS011;24833;49.324;8.694;2023-03-11T17:08:09;1.55;;;1.05;;
38715;SDS011;24833;49.324;8.694;2023-03-11T17:10:37;3.17;;;1.30;;
38715;SDS011;24833;49.324;8.694;2023-03-11T17:13:09;2.15;;;1.42;;
38715;SDS011;24833;49.324;8.694;2023-03-11T17:15:39;3.53;;;1.35;;
38715;SDS011;24833;49.324;8.694;2023-03-11T17:18:10;3.20;;;1.33;;
38715;SDS011;24833;49.324;8.694;2023-03-11T17:20:38;3.25;;;2.30;;
38715;SDS011;24833;49.324;8.694;2023-03-11T17:23:06;2.72;;;1.88;;
38715;SDS011;24833;49.324;8.694;2023-03-11T17:25:33;2.13;;;1.75;;
38715;SDS011;24833;49.324;8.694;2023-03-11T17:28:00;3.75;;;1.67;;
38715;SDS011;24833;49.324;8.694;2023-03-11T17:30:27;2.70;;;1.40;;
38715;SDS011;24833;49.324;8.694;2023-03-11T17:33:04;4.28;;;1.85;;
38715;SDS011;24833;49.324;8.694;2023-03-11T17:35:31;6.40;;;2.58;;
38715;SDS011;24833;49.324;8.694;2023-03-11T17:37:58;3.80;;;1.85;;
38715;SDS011;24833;49.324;8.694;2023-03-11T17:40:25;2.60;;;2.03;;
38715;SDS011;24833;49.324;8.694;2023-03-11T17:42:54;2.50;;;1.30;;
38715;SDS011;24833;49.324;8.694;2023-03-11T17:45:21;4.38;;;1.48;;
38715;SDS011;24833;49.324;8.694;2023-03-11T17:47:48;1.55;;;1.13;;
38715;SDS011;24833;49.324;8.694;2023-03-11T17:50:15;3.17;;;1.00;;
38715;SDS011;24833;49.324;8.694;2023-03-11T17:52:44;1.85;;;1.02;;
38715;SDS011;24833;49.324;8.694;2023-03-11T17:55:12;3.13;;;0.93;;
38715;SDS011;24833;49.324;8.694;2023-03-11T17:57:39;2.08;;;1.00;;
38715;SDS011;24833;49.324;8.694;2023-03-11T18:00:11;1.27;;;0.85;;
38715;SDS011;24833;49.324;8.694;2023-03-11T18:02:40;1.48;;;1.17;;
38715;SDS011;24833;49.324;8.694;2023-03-11T18:05:07;2.70;;;0.88;;
38715;SDS011;24833;49.324;8.694;2023-03-11T18:07:35;1.20;;;0.95;;
38715;SDS011;24833;49.324;8.694;2023-03-11T18:10:06;1.73;;;1.05;;
38715;SDS011;24833;49.324;8.694;2023-03-11T18:12:35;2.67;;;0.90;;
38715;SDS011;24833;49.324;8.694;2023-03-11T18:15:03;0.95;;;0.77;;
38715;SDS011;24833;49.324;8.694;2023-03-11T18:17:39;0.80;;;0.70;;
38715;SDS011;24833;49.324;8.694;2023-03-11T18:20:06;1.60;;;0.80;;
38715;SDS011;24833;49.324;8.694;2023-03-11T18:22:34;1.42;;;0.70;;
38715;SDS011;24833;49.324;8.694;2023-03-11T18:25:02;0.77;;;0.77;;
38715;SDS011;24833;49.324;8.694;2023-03-11T18:27:30;0.52;;;0.50;;
38715;SDS011;24833;49.324;8.694;2023-03-11T18:29:57;2.15;;;0.50;;
38715;SDS011;24833;49.324;8.694;2023-03-11T18:32:25;0.63;;;0.60;;
38715;SDS011;24833;49.324;8.694;2023-03-11T18:34:52;2.17;;;1.00;;
38715;SDS011;24833;49.324;8.694;2023-03-11T18:37:19;0.70;;;0.57;;
38715;SDS011;24833;49.324;8.694;2023-03-11T18:39:46;1.33;;;0.55;;
38715;SDS011;24833;49.324;8.694;2023-03-11T18:42:13;2.08;;;1.10;;
38715;SDS011;24833;49.324;8.694;2023-03-11T18:44:41;2.33;;;1.02;;
38715;SDS011;24833;49.324;8.694;2023-03-11T18:47:08;1.63;;;0.80;;
38715;SDS011;24833;49.324;8.694;2023-03-11T18:49:35;1.80;;;0.98;;
38715;SDS011;24833;49.324;8.694;2023-03-11T18:52:02;1.08;;;0.75;;
38715;SDS011;24833;49.324;8.694;2023-03-11T18:54:29;0.93;;;0.80;;
38715;SDS011;24833;49.324;8.694;2023-03-11T18:56:56;1.75;;;0.80;;